createdAt,value
2017-12-11T00:00:34.221Z,3.63
2017-12-11T00:03:05.381Z,2.83
2017-12-11T00:05:32.072Z,3.27
2017-12-11T00:08:06.332Z,2.70
2017-12-11T00:10:45.843Z,3.07
2017-12-11T00:13:12.670Z,2.40
2017-12-11T00:15:39.364Z,2.83
2017-12-11T00:18:18.662Z,2.67
2017-12-11T00:20:45.362Z,3.50
2017-12-11T00:23:12.105Z,2.70
2017-12-11T00:25:38.831Z,2.47
2017-12-11T00:28:07.528Z,2.97
2017-12-11T00:30:35.206Z,3.37
2017-12-11T00:33:01.948Z,2.93
2017-12-11T00:35:28.707Z,2.30
2017-12-11T00:37:56.278Z,2.70
2017-12-11T00:40:23.024Z,2.97
2017-12-11T00:42:55.635Z,3.17
2017-12-11T00:45:25.664Z,2.97
2017-12-11T00:48:03.169Z,3.00
2017-12-11T00:50:29.894Z,1.80
2017-12-11T00:53:00.165Z,2.23
2017-12-11T00:55:26.847Z,2.57
2017-12-11T00:58:07.231Z,2.77
2017-12-11T01:00:41.390Z,3.40
2017-12-11T01:03:08.120Z,3.37
2017-12-11T01:05:39.900Z,2.70
2017-12-11T01:08:17.225Z,2.37
2017-12-11T01:10:54.779Z,2.73
2017-12-11T01:13:26.182Z,3.33
2017-12-11T01:16:04.978Z,3.07
2017-12-11T01:21:27.415Z,2.77
2017-12-11T01:24:00.840Z,3.77
2017-12-11T01:26:27.546Z,3.30
2017-12-11T01:31:42.288Z,2.63
2017-12-11T01:34:12.545Z,2.87
2017-12-11T01:36:45.800Z,2.70
2017-12-11T01:39:17.104Z,2.80
2017-12-11T01:47:21.092Z,2.13
2017-12-11T01:50:03.179Z,1.80
2017-12-11T01:52:36.082Z,2.10
2017-12-11T01:55:12.865Z,2.10
2017-12-11T01:57:48.332Z,2.07
2017-12-11T02:00:15.026Z,2.40
2017-12-11T02:02:48.648Z,2.87
2017-12-11T02:08:00.907Z,2.57
2017-12-11T02:10:27.638Z,2.63
2017-12-11T02:13:00.216Z,2.63
2017-12-11T02:15:28.918Z,2.07
2017-12-11T02:17:55.594Z,2.50
2017-12-11T02:20:22.332Z,2.20
2017-12-11T02:22:49.046Z,1.77
2017-12-11T02:25:15.727Z,2.23
2017-12-11T02:27:42.509Z,1.87
2017-12-11T02:30:15.111Z,2.53
2017-12-11T02:35:28.090Z,2.23
2017-12-11T02:38:05.685Z,1.40
2017-12-11T02:40:32.433Z,1.70
2017-12-11T02:42:59.132Z,1.43
2017-12-11T02:45:34.214Z,1.37
2017-12-11T02:48:00.928Z,1.40
2017-12-11T02:50:32.902Z,1.37
2017-12-11T02:53:09.775Z,1.43
2017-12-11T02:55:44.599Z,1.60
2017-12-11T02:58:22.248Z,1.57
2017-12-11T03:00:50.908Z,1.63
2017-12-11T03:03:17.583Z,1.47
2017-12-11T03:05:50.124Z,1.40
2017-12-11T03:08:19.970Z,1.00
2017-12-11T03:10:46.672Z,1.20
2017-12-11T03:13:17.233Z,1.20
2017-12-11T03:15:44.016Z,1.43
2017-12-11T03:18:11.764Z,1.70
2017-12-11T03:20:38.492Z,1.30
2017-12-11T03:23:08.804Z,1.10
2017-12-11T03:25:42.338Z,1.63
2017-12-11T03:28:15.096Z,1.40
2017-12-11T03:30:56.434Z,1.53
2017-12-11T03:33:33.742Z,1.30
2017-12-11T03:36:17.325Z,1.20
2017-12-11T03:38:48.471Z,1.10
2017-12-11T03:41:25.033Z,1.13
2017-12-11T03:43:54.874Z,0.93
2017-12-11T03:46:21.606Z,1.00
2017-12-11T03:48:48.339Z,1.00
2017-12-11T03:51:31.850Z,1.13
2017-12-11T03:54:06.863Z,1.00
2017-12-11T03:56:47.178Z,1.00
2017-12-11T04:02:01.675Z,1.20
2017-12-11T04:04:28.402Z,0.90
2017-12-11T04:12:28.694Z,1.17
2017-12-11T04:14:57.431Z,1.07
2017-12-11T04:20:11.488Z,1.50
2017-12-11T04:22:39.230Z,1.10
2017-12-11T04:27:51.582Z,1.33
2017-12-11T04:30:31.150Z,1.53
2017-12-11T04:33:08.180Z,1.47
2017-12-11T04:35:34.962Z,1.53
2017-12-11T04:38:02.691Z,1.47
2017-12-11T04:40:40.182Z,2.37
2017-12-11T04:46:02.270Z,3.03
2017-12-11T04:48:36.979Z,1.83
2017-12-11T04:51:03.718Z,2.97
2017-12-11T04:56:28.708Z,3.53
2017-12-11T04:59:10.096Z,5.80
2017-12-11T05:01:41.242Z,5.43
2017-12-11T05:04:09.967Z,5.00
2017-12-11T05:06:37.630Z,6.50
2017-12-11T05:09:18.803Z,9.83
2017-12-11T05:11:58.545Z,10.03
2017-12-11T05:14:30.916Z,7.07
2017-12-11T05:16:58.616Z,10.20
2017-12-11T05:19:25.382Z,10.70
2017-12-11T05:21:59.523Z,6.83
2017-12-11T05:24:38.702Z,5.87
2017-12-11T05:27:08.924Z,5.93
2017-12-11T05:29:44.276Z,4.23
2017-12-11T05:32:24.610Z,4.23
2017-12-11T05:37:49.864Z,3.80
2017-12-11T05:40:16.550Z,3.83
2017-12-11T05:42:43.313Z,4.60
2017-12-11T05:45:10.023Z,4.93
2017-12-11T05:47:37.675Z,11.03
2017-12-11T05:50:04.631Z,10.10
2017-12-11T05:52:31.532Z,7.63
2017-12-11T05:54:59.248Z,6.73
2017-12-11T05:57:26.912Z,4.20
2017-12-11T05:59:53.734Z,4.13
2017-12-11T06:05:13.361Z,4.83
2017-12-11T06:07:40.042Z,4.43
2017-12-11T06:10:12.548Z,4.57
2017-12-11T06:12:43.157Z,4.07
2017-12-11T06:15:09.922Z,5.10
2017-12-11T06:17:40.184Z,3.83
2017-12-11T06:20:06.975Z,5.97
2017-12-11T06:22:42.692Z,6.43
2017-12-11T06:25:09.421Z,6.40
2017-12-11T06:27:45.059Z,7.10
2017-12-11T06:30:26.652Z,9.43
2017-12-11T06:33:01.408Z,7.80
2017-12-11T06:35:41.228Z,9.47
2017-12-11T06:38:15.159Z,10.90
2017-12-11T06:40:45.772Z,11.10
2017-12-11T06:43:22.262Z,11.83
2017-12-11T06:45:50.026Z,13.67
2017-12-11T06:48:23.765Z,13.90
2017-12-11T06:50:50.496Z,13.77
2017-12-11T06:53:17.181Z,11.43
2017-12-11T06:55:43.893Z,10.80
2017-12-11T06:58:10.622Z,9.13
2017-12-11T07:06:09.172Z,9.43
2017-12-11T07:08:35.947Z,8.70
2017-12-11T07:11:16.035Z,9.00
2017-12-11T07:13:56.806Z,8.43
2017-12-11T07:16:27.384Z,9.47
2017-12-11T07:19:04.920Z,7.60
2017-12-11T07:21:31.605Z,8.60
2017-12-11T07:24:10.444Z,8.93
2017-12-11T07:26:40.462Z,7.03
2017-12-11T07:29:08.768Z,6.83
2017-12-11T07:34:21.070Z,7.27
2017-12-11T07:36:47.815Z,6.87
2017-12-11T07:39:14.557Z,6.40
2017-12-11T07:41:47.009Z,6.57
2017-12-11T07:44:13.710Z,6.53
2017-12-11T07:46:40.448Z,7.40
2017-12-11T07:49:07.199Z,6.07
2017-12-11T07:51:33.960Z,6.73
2017-12-11T07:54:05.584Z,6.93
2017-12-11T07:56:32.298Z,6.80
2017-12-11T07:59:03.003Z,6.40
2017-12-11T08:01:29.709Z,5.77
2017-12-11T08:03:56.440Z,4.60
2017-12-11T08:06:38.209Z,4.90
2017-12-11T08:09:08.185Z,6.83
2017-12-11T08:11:47.366Z,7.10
2017-12-11T08:14:21.196Z,7.63
2017-12-11T08:16:52.251Z,8.73
2017-12-11T08:19:25.031Z,7.47
2017-12-11T08:21:51.735Z,8.33
2017-12-11T08:24:19.134Z,8.83
2017-12-11T08:26:57.492Z,7.53
2017-12-11T08:29:40.850Z,6.30
2017-12-11T08:32:14.795Z,9.20
2017-12-11T08:34:45.069Z,7.10
2017-12-11T08:37:11.791Z,7.33
2017-12-11T08:42:27.611Z,27.27
2017-12-11T08:44:55.307Z,17.17
2017-12-11T08:47:23.032Z,10.50
2017-12-11T08:49:55.611Z,10.67
2017-12-11T08:52:22.294Z,8.83
2017-12-11T08:54:54.856Z,10.60
2017-12-11T08:57:21.595Z,8.70
2017-12-11T08:59:56.458Z,19.13
2017-12-11T09:02:27.272Z,11.47
2017-12-11T09:04:54.002Z,7.97
2017-12-11T09:07:29.454Z,8.23
2017-12-11T09:12:51.736Z,6.70
2017-12-11T09:15:32.764Z,8.27
2017-12-11T09:18:12.136Z,9.07
2017-12-11T09:20:45.647Z,7.30
2017-12-11T09:23:18.764Z,7.83
2017-12-11T09:25:45.513Z,8.30
2017-12-11T09:28:20.728Z,5.57
2017-12-11T09:30:54.420Z,7.13
2017-12-11T09:33:21.132Z,4.60
2017-12-11T09:35:48.853Z,5.67
2017-12-11T09:38:29.301Z,4.77
2017-12-11T09:41:06.548Z,4.50
2017-12-11T09:43:35.589Z,4.40
2017-12-11T09:46:06.895Z,4.77
2017-12-11T09:48:33.586Z,3.83
2017-12-11T09:51:01.267Z,3.97
2017-12-11T09:53:27.952Z,2.73
2017-12-11T09:55:58.634Z,2.63
2017-12-11T09:58:25.322Z,3.57
2017-12-11T10:01:05.001Z,3.67
2017-12-11T10:03:39.391Z,2.63
2017-12-11T10:06:09.567Z,3.60
2017-12-11T10:08:42.585Z,6.10
2017-12-11T10:11:09.303Z,4.70
2017-12-11T10:13:35.992Z,4.87
2017-12-11T10:16:02.721Z,5.10
2017-12-11T10:18:29.443Z,3.90
2017-12-11T10:21:11.339Z,4.33
2017-12-11T10:23:41.450Z,4.00
2017-12-11T10:26:08.139Z,4.30
2017-12-11T10:28:38.853Z,3.40
2017-12-11T10:31:06.379Z,3.30
2017-12-11T10:33:48.122Z,3.20
2017-12-11T10:36:14.847Z,30.97
2017-12-11T10:38:42.505Z,19.37
2017-12-11T10:41:09.211Z,6.20
2017-12-11T10:43:39.589Z,26.90
2017-12-11T10:46:13.431Z,33.27
2017-12-11T10:51:32.340Z,14.17
2017-12-11T10:54:03.051Z,8.57
2017-12-11T10:56:36.313Z,6.63
2017-12-11T10:59:12.863Z,8.10
2017-12-11T11:01:53.583Z,6.47
2017-12-11T11:04:20.304Z,9.77
2017-12-11T11:06:52.841Z,8.10
2017-12-11T11:09:22.811Z,8.53
2017-12-11T11:11:55.385Z,10.93
2017-12-11T11:14:38.717Z,9.60
2017-12-11T11:17:13.704Z,9.93
2017-12-11T11:19:43.618Z,7.10
2017-12-11T11:22:10.338Z,6.77
2017-12-11T11:24:37.091Z,8.93
2017-12-11T11:27:04.745Z,10.57
2017-12-11T11:29:45.875Z,6.33
2017-12-11T11:32:20.156Z,14.63
2017-12-11T11:34:46.904Z,12.97
2017-12-11T11:37:13.638Z,6.80
2017-12-11T11:39:40.339Z,10.20
2017-12-11T11:42:07.086Z,25.07
2017-12-11T11:44:41.124Z,8.27
2017-12-11T11:47:07.833Z,12.53
2017-12-11T11:49:34.517Z,8.57
2017-12-11T11:52:01.215Z,17.20
2017-12-11T11:54:28.955Z,16.67
2017-12-11T11:56:56.691Z,7.77
2017-12-11T11:59:23.442Z,8.93
2017-12-11T12:01:53.763Z,7.53
2017-12-11T12:04:20.441Z,10.47
2017-12-11T12:06:47.143Z,6.67
2017-12-11T12:09:13.847Z,8.57
2017-12-11T12:11:40.531Z,10.90
2017-12-11T12:14:07.272Z,8.13
2017-12-11T12:16:34.010Z,5.77
2017-12-11T12:19:00.705Z,7.63
2017-12-11T12:21:28.317Z,6.03
2017-12-11T12:24:02.144Z,6.40
2017-12-11T12:26:38.829Z,6.73
2017-12-11T12:29:05.638Z,7.10
2017-12-11T12:31:32.325Z,7.20
2017-12-11T12:33:59.047Z,4.57
2017-12-11T12:36:35.994Z,8.07
2017-12-11T12:39:09.720Z,12.27
2017-12-11T12:41:41.577Z,10.77
2017-12-11T12:44:21.669Z,19.93
2017-12-11T12:46:54.806Z,9.60
2017-12-11T12:49:22.560Z,15.47
2017-12-11T12:51:57.963Z,15.77
2017-12-11T12:54:24.647Z,6.60
2017-12-11T12:56:51.360Z,15.60
2017-12-11T12:59:18.953Z,14.37
2017-12-11T13:01:45.677Z,8.00
2017-12-11T13:04:25.285Z,14.23
2017-12-11T13:09:51.867Z,14.53
2017-12-11T13:12:18.566Z,23.37
2017-12-11T13:14:48.386Z,28.13
2017-12-11T13:17:16.019Z,15.73
2017-12-11T13:19:42.863Z,16.83
2017-12-11T13:22:09.633Z,32.23
2017-12-11T13:24:36.364Z,21.50
2017-12-11T13:27:03.111Z,11.93
2017-12-11T13:29:29.891Z,12.27
2017-12-11T13:31:59.873Z,18.43
2017-12-11T13:34:26.632Z,55.53
2017-12-11T13:36:53.564Z,10.63
2017-12-11T13:39:20.317Z,33.17
2017-12-11T13:41:47.035Z,17.50
2017-12-11T13:44:31.567Z,20.43
2017-12-11T13:47:13.182Z,13.33
2017-12-11T13:49:39.915Z,20.23
2017-12-11T13:54:55.812Z,11.77
2017-12-11T13:57:26.583Z,8.20
2017-12-11T13:59:53.268Z,6.87
2017-12-11T14:02:20.054Z,6.87
2017-12-11T14:04:46.756Z,5.40
2017-12-11T14:07:19.949Z,6.40
2017-12-11T14:09:46.629Z,6.40
2017-12-11T14:12:13.325Z,4.73
2017-12-11T14:14:40.061Z,5.83
2017-12-11T14:17:06.753Z,6.47
2017-12-11T14:19:33.435Z,6.53
2017-12-11T14:22:00.149Z,6.40
2017-12-11T14:24:26.825Z,6.10
2017-12-11T14:26:53.503Z,6.40
2017-12-11T14:29:20.204Z,5.93
2017-12-11T14:31:46.881Z,5.87
2017-12-11T14:34:13.569Z,5.93
2017-12-11T14:36:40.425Z,6.40
2017-12-11T14:39:08.759Z,7.47
2017-12-11T14:41:35.446Z,6.73
2017-12-11T14:44:02.153Z,6.47
2017-12-11T14:46:28.852Z,7.73
2017-12-11T14:48:55.551Z,7.70
2017-12-11T14:51:22.300Z,6.87
2017-12-11T14:53:48.994Z,5.57
2017-12-11T14:56:15.709Z,5.97
2017-12-11T14:58:42.412Z,7.83
2017-12-11T15:01:09.089Z,8.67
2017-12-11T15:03:35.787Z,9.10
2017-12-11T15:06:02.504Z,9.43
2017-12-11T15:08:29.203Z,9.20
2017-12-11T15:10:56.332Z,8.17
2017-12-11T15:13:36.108Z,8.07
2017-12-11T15:16:03.065Z,9.50
2017-12-11T15:21:19.924Z,8.13
2017-12-11T15:23:50.579Z,6.57
2017-12-11T15:26:17.294Z,8.03
2017-12-11T15:28:44.002Z,5.93
2017-12-11T15:31:10.709Z,5.50
2017-12-11T15:33:37.408Z,5.70
2017-12-11T15:36:11.067Z,6.30
2017-12-11T15:38:37.834Z,5.67
2017-12-11T15:41:04.561Z,5.67
2017-12-11T15:43:31.296Z,8.00
2017-12-11T15:45:58.070Z,7.93
2017-12-11T15:48:24.752Z,7.73
2017-12-11T15:50:51.479Z,6.30
2017-12-11T15:53:18.201Z,7.87
2017-12-11T15:55:44.899Z,8.40
2017-12-11T15:58:11.680Z,8.37
2017-12-11T16:00:38.360Z,9.97
2017-12-11T16:03:05.039Z,7.47
2017-12-11T16:05:31.738Z,6.90
2017-12-11T16:07:58.423Z,9.27
2017-12-11T16:10:25.116Z,8.87
2017-12-11T16:12:51.824Z,7.93
2017-12-11T16:15:25.084Z,6.80
2017-12-11T16:17:51.809Z,8.37
2017-12-11T16:20:28.824Z,8.60
2017-12-11T16:23:05.401Z,6.73
2017-12-11T16:28:30.492Z,7.73
2017-12-11T16:31:07.095Z,5.53
2017-12-11T16:36:25.365Z,6.80
2017-12-11T16:39:00.109Z,6.63
2017-12-11T16:41:34.605Z,7.27
2017-12-11T16:44:15.063Z,6.97
2017-12-11T16:46:41.769Z,8.27
2017-12-11T16:49:08.489Z,8.63
2017-12-11T16:51:35.188Z,11.03
2017-12-11T16:54:01.903Z,10.73
2017-12-11T16:56:29.644Z,8.50
2017-12-11T16:58:56.360Z,6.50
2017-12-11T17:01:23.048Z,6.77
2017-12-11T17:03:49.738Z,6.27
2017-12-11T17:06:16.455Z,8.83
2017-12-11T17:08:43.142Z,8.87
2017-12-11T17:11:09.854Z,10.23
2017-12-11T17:13:36.565Z,6.50
2017-12-11T17:16:03.267Z,6.20
2017-12-11T17:18:29.972Z,6.33
2017-12-11T17:20:56.670Z,7.23
2017-12-11T17:23:23.362Z,9.73
2017-12-11T17:25:50.078Z,9.60
2017-12-11T17:28:16.826Z,8.90
2017-12-11T17:30:43.526Z,7.57
2017-12-11T17:33:10.217Z,10.17
2017-12-11T17:35:36.927Z,8.47
2017-12-11T17:38:03.620Z,13.10
2017-12-11T17:40:30.925Z,13.27
2017-12-11T17:42:57.632Z,13.60
2017-12-11T17:45:24.326Z,14.23
2017-12-11T17:47:54.243Z,11.20
2017-12-11T17:50:24.701Z,8.43
2017-12-11T17:52:51.687Z,10.37
2017-12-11T17:55:18.376Z,7.07
2017-12-11T17:57:45.127Z,5.87
2017-12-11T18:00:11.841Z,5.57
2017-12-11T18:02:38.535Z,4.80
2017-12-11T18:05:05.286Z,5.37
2017-12-11T18:07:31.984Z,6.70
2017-12-11T18:09:58.716Z,4.90
2017-12-11T18:12:25.420Z,6.40
2017-12-11T18:14:52.119Z,7.40
2017-12-11T18:17:18.810Z,6.87
2017-12-11T18:19:45.534Z,7.00
2017-12-11T18:22:12.218Z,5.70
2017-12-11T18:24:38.923Z,5.70
2017-12-11T18:27:05.617Z,6.23
2017-12-11T18:29:38.908Z,7.00
2017-12-11T18:32:05.608Z,6.63
2017-12-11T18:34:32.355Z,4.73
2017-12-11T18:36:59.034Z,5.33
2017-12-11T18:39:25.764Z,5.50
2017-12-11T18:41:52.444Z,5.20
2017-12-11T18:44:19.157Z,5.17
2017-12-11T18:46:45.861Z,5.33
2017-12-11T18:49:12.555Z,4.43
2017-12-11T18:51:40.007Z,4.83
2017-12-11T18:54:06.706Z,5.40
2017-12-11T18:56:33.393Z,6.03
2017-12-11T18:59:00.063Z,5.17
2017-12-11T19:01:28.809Z,3.77
2017-12-11T19:04:06.753Z,4.13
2017-12-11T19:06:33.455Z,3.90
2017-12-11T19:09:00.140Z,4.03
2017-12-11T19:11:26.830Z,4.50
2017-12-11T19:13:53.566Z,5.10
2017-12-11T19:16:20.600Z,4.23
2017-12-11T19:18:47.313Z,4.37
2017-12-11T19:21:14.026Z,4.70
2017-12-11T19:23:40.717Z,4.00
2017-12-11T19:26:07.408Z,5.57
2017-12-11T19:28:34.133Z,5.10
2017-12-11T19:31:00.860Z,6.17
2017-12-11T19:33:27.837Z,5.57
2017-12-11T19:35:54.587Z,5.80
2017-12-11T19:38:21.931Z,5.40
2017-12-11T19:40:48.621Z,4.80
2017-12-11T19:43:15.596Z,6.50
2017-12-11T19:45:42.637Z,5.57
2017-12-11T19:48:24.913Z,5.37
2017-12-11T19:51:01.782Z,6.17
2017-12-11T19:53:28.550Z,7.10
2017-12-11T19:55:55.501Z,8.17
2017-12-11T19:58:22.546Z,8.33
2017-12-11T20:00:49.586Z,9.57
2017-12-11T20:03:16.370Z,8.83
2017-12-11T20:05:43.290Z,8.80
2017-12-11T20:08:10.102Z,7.47
2017-12-11T20:10:37.070Z,7.03
2017-12-11T20:13:03.816Z,7.20
2017-12-11T20:15:30.535Z,7.80
2017-12-11T20:17:57.506Z,6.57
2017-12-11T20:20:24.246Z,7.53
2017-12-11T20:22:51.276Z,7.63
2017-12-11T20:25:18.275Z,8.87
2017-12-11T20:27:45.006Z,9.23
2017-12-11T20:30:12.064Z,8.50
2017-12-11T20:32:39.124Z,8.87
2017-12-11T20:35:06.133Z,8.53
2017-12-11T20:37:33.177Z,8.20
2017-12-11T20:40:00.170Z,8.20
2017-12-11T20:42:27.253Z,8.20
2017-12-11T20:44:54.330Z,7.07
2017-12-11T20:47:21.352Z,5.47
2017-12-11T20:49:48.116Z,6.57
2017-12-11T20:52:14.842Z,7.10
2017-12-11T20:54:41.516Z,7.90
2017-12-11T20:57:15.121Z,6.33
2017-12-11T20:59:47.909Z,7.03
2017-12-11T21:02:21.502Z,9.47
2017-12-11T21:05:02.660Z,9.20
2017-12-11T21:07:29.380Z,9.43
2017-12-11T21:09:56.092Z,8.67
2017-12-11T21:12:32.945Z,8.37
2017-12-11T21:15:02.914Z,12.37
2017-12-11T21:17:29.614Z,10.07
2017-12-11T21:19:56.345Z,8.67
2017-12-11T21:22:23.048Z,8.53
2017-12-11T21:24:51.754Z,8.40
2017-12-11T21:27:28.473Z,7.17
2017-12-11T21:29:59.415Z,7.83
2017-12-11T21:32:26.202Z,7.57
2017-12-11T21:34:52.900Z,7.50
2017-12-11T21:37:27.962Z,6.63
2017-12-11T21:40:02.500Z,7.77
2017-12-11T21:42:29.206Z,7.87
2017-12-11T21:44:55.914Z,9.93
2017-12-11T21:47:22.707Z,9.07
2017-12-11T21:49:49.399Z,8.43
2017-12-11T21:52:29.583Z,6.30
2017-12-11T21:54:56.305Z,5.27
2017-12-11T21:57:26.575Z,4.27
2017-12-11T21:59:53.328Z,5.77
2017-12-11T22:02:26.822Z,4.93
2017-12-11T22:04:53.617Z,3.93
2017-12-11T22:07:20.310Z,4.20
2017-12-11T22:09:47.011Z,3.03
2017-12-11T22:12:15.680Z,3.30
2017-12-11T22:14:44.333Z,3.80
2017-12-11T22:17:11.994Z,3.67
2017-12-11T22:19:39.710Z,3.23
2017-12-11T22:22:10.319Z,3.10
2017-12-11T22:24:37.026Z,2.60
2017-12-11T22:27:03.785Z,3.20
2017-12-11T22:29:30.444Z,2.87
2017-12-11T22:31:57.128Z,2.47
2017-12-11T22:34:23.870Z,3.17
2017-12-11T22:36:56.580Z,2.93
2017-12-11T22:39:36.207Z,3.60
2017-12-11T22:42:02.901Z,3.93
2017-12-11T22:44:29.694Z,4.07
2017-12-11T22:46:57.438Z,3.90
2017-12-11T22:49:27.523Z,3.83
2017-12-11T22:52:01.906Z,4.53
2017-12-11T22:54:28.590Z,4.40
2017-12-11T22:56:59.441Z,4.00
2017-12-11T22:59:26.210Z,4.10
2017-12-11T23:01:52.928Z,4.67
2017-12-11T23:04:25.920Z,4.77
2017-12-11T23:07:05.767Z,3.97
2017-12-11T23:09:32.500Z,4.87
2017-12-11T23:12:06.192Z,3.77
2017-12-11T23:14:36.101Z,3.07
2017-12-11T23:17:06.666Z,3.27
2017-12-11T23:19:39.410Z,3.00
2017-12-11T23:22:13.354Z,2.90
2017-12-11T23:24:40.058Z,3.00
2017-12-11T23:27:09.840Z,2.37
2017-12-11T23:29:36.571Z,2.47
2017-12-11T23:32:04.259Z,2.90
2017-12-11T23:34:30.987Z,2.30
2017-12-11T23:36:57.678Z,2.27
2017-12-11T23:39:24.392Z,2.13
2017-12-11T23:41:51.975Z,2.13
2017-12-11T23:44:22.136Z,1.80
2017-12-11T23:46:48.873Z,2.27
2017-12-11T23:52:11.676Z,1.90
2017-12-11T23:54:51.308Z,2.20
2017-12-11T23:57:18.054Z,2.23
